Time;durP1;ratioP1;P1;durP2;ratioP2;P2;SDS_P1;SDS_P2;PMS_P1;PMS_P2;Temp;Humidity;BMP_temperature;BMP_pressure;BME280_temperature;BME280_humidity;BME280_pressure;Samples;Min_cycle;Max_cycle;Signal;HPM_P1;HPM_P2
2022/03/20 00:00:05;;;;;;;20.43;10.37;;;3.60;52.70;;;;;;4134343;28;20819;-81
2022/03/20 00:02:07;;;;;;;20.93;10.13;;;3.50;52.60;;;;;;4132129;28;20956;-81
2022/03/20 00:04:08;;;;;;;18.97;10.07;;;3.50;52.50;;;;;;4131601;28;20985;-81
2022/03/20 00:06:10;;;;;;;20.33;9.80;;;3.50;52.40;;;;;;4128166;28;20460;-81
2022/03/20 00:08:12;;;;;;;19.43;10.70;;;3.50;52.50;;;;;;4130891;28;21048;-81
2022/03/20 00:10:15;;;;;;;23.17;10.07;;;3.60;52.70;;;;;;4129092;28;20511;-81
2022/03/20 00:12:17;;;;;;;21.83;10.10;;;3.40;52.50;;;;;;4124761;28;20444;-81
2022/03/20 00:14:20;;;;;;;19.40;9.87;;;3.40;53.30;;;;;;4130628;28;20554;-82
2022/03/20 00:16:23;;;;;;;20.63;10.40;;;3.40;52.80;;;;;;4132459;28;20460;-81
2022/03/20 00:18:26;;;;;;;21.70;9.63;;;3.40;53.00;;;;;;4131513;28;21197;-81
2022/03/20 00:20:28;;;;;;;24.03;10.33;;;3.40;53.00;;;;;;4131549;28;20527;-81
2022/03/20 00:22:34;;;;;;;22.97;10.37;;;3.40;53.10;;;;;;4131078;28;20467;-81
2022/03/20 00:24:36;;;;;;;21.33;10.73;;;3.50;53.20;;;;;;4130806;28;20497;-81
2022/03/20 00:26:39;;;;;;;21.50;9.63;;;3.30;53.30;;;;;;4130684;28;20897;-81
2022/03/20 00:28:42;;;;;;;23.77;11.03;;;3.30;53.40;;;;;;4130350;28;20504;-81
2022/03/20 00:30:47;;;;;;;21.70;11.43;;;3.30;53.40;;;;;;4130676;28;20464;-81
2022/03/20 00:32:49;;;;;;;23.70;10.77;;;3.30;54.00;;;;;;4130646;28;20518;-81
2022/03/20 00:34:56;;;;;;;22.73;11.20;;;3.30;53.30;;;;;;4131200;28;20460;-81
2022/03/20 00:36:58;;;;;;;19.17;10.40;;;3.30;53.10;;;;;;4132788;28;20462;-81
2022/03/20 00:39:00;;;;;;;23.53;11.20;;;3.20;53.20;;;;;;4132337;28;20527;-82
2022/03/20 00:41:02;;;;;;;19.47;9.63;;;3.20;53.20;;;;;;4128173;28;20852;-81
2022/03/20 00:43:04;;;;;;;24.87;10.10;;;3.70;53.60;;;;;;4134177;28;20443;-82
2022/03/20 00:45:07;;;;;;;21.57;10.00;;;3.20;53.40;;;;;;4135070;28;20455;-81
2022/03/20 00:47:11;;;;;;;20.70;10.50;;;3.20;53.50;;;;;;4135449;28;20448;-81
2022/03/20 00:49:13;;;;;;;22.13;10.20;;;4.20;53.90;;;;;;4132113;28;21039;-81
2022/03/20 00:51:14;;;;;;;20.20;10.10;;;3.10;53.50;;;;;;4128681;28;20468;-81
2022/03/20 00:53:16;;;;;;;23.57;11.23;;;3.10;53.60;;;;;;4131968;28;20471;-81
2022/03/20 00:55:19;;;;;;;21.53;10.90;;;3.10;53.70;;;;;;4131260;28;20961;-81
2022/03/20 00:57:21;;;;;;;20.77;10.10;;;3.10;53.90;;;;;;4130302;28;20496;-81
2022/03/20 00:59:23;;;;;;;20.57;9.70;;;3.10;54.20;;;;;;4129818;28;20476;-80
2022/03/20 01:01:26;;;;;;;21.20;10.60;;;3.00;54.50;;;;;;4129452;28;20459;-81
2022/03/20 01:03:30;;;;;;;23.00;11.03;;;3.00;55.20;;;;;;4130532;28;20475;-81
2022/03/20 01:05:31;;;;;;;21.00;10.60;;;3.00;55.40;;;;;;4130894;28;20463;-81
2022/03/20 01:07:33;;;;;;;22.60;10.83;;;3.00;55.50;;;;;;4131986;28;20484;-82
2022/03/20 01:09:35;;;;;;;20.83;10.03;;;3.00;55.70;;;;;;4133737;28;20491;-81
2022/03/20 01:11:37;;;;;;;23.27;10.27;;;3.40;56.40;;;;;;4133005;28;20520;-82
2022/03/20 01:13:39;;;;;;;19.57;10.57;;;3.00;56.10;;;;;;4133088;28;20506;-81
2022/03/20 01:15:41;;;;;;;26.23;11.00;;;2.90;56.50;;;;;;4134296;28;20463;-81
2022/03/20 01:17:43;;;;;;;20.93;10.80;;;2.90;57.00;;;;;;4133116;28;20503;-81
2022/03/20 01:19:46;;;;;;;21.80;9.90;;;2.90;57.10;;;;;;4133252;28;20463;-82
2022/03/20 01:21:48;;;;;;;23.67;10.93;;;2.90;57.10;;;;;;4133314;28;20460;-81
2022/03/20 01:23:50;;;;;;;22.20;10.27;;;2.80;57.30;;;;;;4132533;28;20475;-82
2022/03/20 01:25:52;;;;;;;22.40;10.27;;;2.80;57.50;;;;;;4135512;28;20474;-82
2022/03/20 01:27:54;;;;;;;24.03;10.97;;;2.80;57.80;;;;;;4132003;28;20488;-81
2022/03/20 01:29:56;;;;;;;25.13;10.20;;;2.80;57.90;;;;;;4133117;28;20491;-81
2022/03/20 01:31:58;;;;;;;21.03;10.53;;;2.80;58.20;;;;;;4133737;28;20460;-81
2022/03/20 01:34:00;;;;;;;21.37;10.80;;;2.70;58.70;;;;;;4132297;28;20483;-81
2022/03/20 01:36:03;;;;;;;22.00;10.00;;;2.70;58.90;;;;;;4134199;28;20522;-82
2022/03/20 01:38:05;;;;;;;22.07;10.43;;;2.70;59.40;;;;;;4132977;28;20483;-81
2022/03/20 01:40:09;;;;;;;20.83;10.40;;;2.70;59.60;;;;;;4132347;28;20993;-81
2022/03/20 01:42:11;;;;;;;21.37;10.00;;;2.70;59.30;;;;;;4132305;28;20471;-82
2022/03/20 01:44:12;;;;;;;20.50;10.10;;;2.70;59.30;;;;;;4139815;28;20481;-81
2022/03/20 01:46:14;;;;;;;25.03;10.63;;;2.60;60.50;;;;;;4142622;28;20459;-81
2022/03/20 01:48:16;;;;;;;23.40;11.10;;;2.60;60.80;;;;;;4135147;28;20561;-81
2022/03/20 01:50:19;;;;;;;25.27;11.13;;;2.60;60.80;;;;;;4136937;28;20771;-81
2022/03/20 01:52:25;;;;;;;23.83;11.10;;;2.60;60.60;;;;;;4137089;28;20460;-81
2022/03/20 01:54:27;;;;;;;21.57;10.43;;;3.20;61.00;;;;;;4145443;28;20509;-81
2022/03/20 01:56:32;;;;;;;19.27;9.97;;;2.60;60.00;;;;;;4146729;28;20509;-81
2022/03/20 01:58:34;;;;;;;22.50;10.77;;;2.60;60.30;;;;;;4140641;28;20498;-81
2022/03/20 02:00:36;;;;;;;23.37;10.70;;;2.50;60.50;;;;;;4137452;28;20494;-81
2022/03/20 02:02:37;;;;;;;24.90;11.47;;;2.30;60.40;;;;;;4135147;28;20472;-81
2022/03/20 02:04:40;;;;;;;21.80;10.77;;;2.50;59.80;;;;;;4133919;28;20478;-81
2022/03/20 02:06:42;;;;;;;27.00;11.60;;;2.50;59.80;;;;;;4134955;28;20464;-81
2022/03/20 02:08:45;;;;;;;20.53;10.27;;;2.50;59.90;;;;;;4137458;28;20499;-81
2022/03/20 02:10:48;;;;;;;22.80;11.40;;;2.50;60.00;;;;;;4134262;28;20464;-81
2022/03/20 02:12:50;;;;;;;22.23;10.43;;;2.50;60.90;;;;;;4136244;28;20534;-81
2022/03/20 02:14:52;;;;;;;21.77;10.77;;;3.40;61.30;;;;;;4136078;28;20813;-81
2022/03/20 02:16:55;;;;;;;23.00;10.97;;;2.40;60.60;;;;;;4134722;28;20452;-81
2022/03/20 02:18:57;;;;;;;22.70;11.13;;;2.40;60.40;;;;;;4135237;28;20475;-81
2022/03/20 02:21:03;;;;;;;23.20;10.83;;;2.40;60.40;;;;;;4130836;28;20486;-81
2022/03/20 02:23:06;;;;;;;23.40;11.20;;;2.40;61.00;;;;;;4133012;28;20459;-81
2022/03/20 02:25:10;;;;;;;21.50;10.60;;;2.40;62.00;;;;;;4135039;28;20482;-81
2022/03/20 02:27:15;;;;;;;27.33;11.37;;;2.40;61.60;;;;;;4135260;28;20501;-81
2022/03/20 02:29:16;;;;;;;22.93;10.47;;;2.40;61.60;;;;;;4135239;28;20490;-81
2022/03/20 02:31:18;;;;;;;23.93;11.57;;;2.30;61.70;;;;;;4135401;28;20487;-81
2022/03/20 02:33:23;;;;;;;22.23;10.80;;;2.30;61.90;;;;;;4136398;28;20497;-82
2022/03/20 02:35:25;;;;;;;26.60;11.70;;;2.30;61.50;;;;;;4135563;28;20530;-81
2022/03/20 02:37:29;;;;;;;22.87;10.43;;;2.80;61.80;;;;;;4135346;28;20633;-81
2022/03/20 02:39:32;;;;;;;23.30;11.27;;;2.30;61.00;;;;;;4134789;28;20479;-81
2022/03/20 02:41:34;;;;;;;24.93;10.57;;;2.30;60.70;;;;;;4127476;28;20479;-81
2022/03/20 02:43:38;;;;;;;25.60;11.30;;;2.80;61.80;;;;;;4134813;28;20495;-80
2022/03/20 02:45:40;;;;;;;24.13;11.23;;;2.40;61.40;;;;;;4137494;28;20490;-81
2022/03/20 02:47:44;;;;;;;23.70;12.13;;;2.20;61.60;;;;;;4136881;28;20492;-81
2022/03/20 02:49:45;;;;;;;22.40;10.93;;;2.20;62.40;;;;;;4132734;28;20543;-81
2022/03/20 02:51:47;;;;;;;24.47;11.50;;;2.20;62.00;;;;;;4130808;28;20452;-81
2022/03/20 02:53:50;;;;;;;27.87;12.90;;;2.20;62.10;;;;;;4134258;28;20526;-81
2022/03/20 02:55:53;;;;;;;21.47;9.80;;;2.20;62.50;;;;;;4139216;28;20463;-81
2022/03/20 02:57:56;;;;;;;22.70;10.80;;;2.10;63.20;;;;;;4139368;28;20791;-81
2022/03/20 03:00:00;;;;;;;22.87;10.73;;;2.10;64.10;;;;;;4141833;28;20549;-81
2022/03/20 03:02:02;;;;;;;23.50;11.53;;;2.10;65.00;;;;;;4140643;28;20471;-81
2022/03/20 03:04:04;;;;;;;22.97;10.47;;;2.00;64.30;;;;;;4135735;28;20524;-81
2022/03/20 03:06:08;;;;;;;24.77;11.30;;;2.10;64.10;;;;;;4138833;28;20463;-81
2022/03/20 03:12:52;;;;;;;21.73;10.00;;;2.00;65.90;;;;;;4140882;28;20474;-81
2022/03/20 03:17:13;;;;;;;22.40;10.30;;;2.00;65.60;;;;;;4126353;28;20541;-81
2022/03/20 03:19:15;;;;;;;24.47;11.23;;;2.00;66.10;;;;;;4137713;28;20536;-81
2022/03/20 03:21:18;;;;;;;26.00;10.43;;;2.00;66.60;;;;;;4138326;28;20454;-81
2022/03/20 03:23:20;;;;;;;23.83;11.33;;;1.90;67.10;;;;;;4146732;28;20464;-81
2022/03/20 03:25:23;;;;;;;22.23;10.77;;;1.90;67.30;;;;;;4161279;28;20474;-82
2022/03/20 03:27:26;;;;;;;25.37;10.73;;;1.90;67.30;;;;;;4164276;28;20508;-81
2022/03/20 03:29:28;;;;;;;27.20;11.60;;;1.90;66.70;;;;;;4144710;28;20506;-81
2022/03/20 03:31:30;;;;;;;22.50;9.83;;;1.50;66.10;;;;;;4140369;28;20462;-81
2022/03/20 03:33:32;;;;;;;22.63;10.60;;;2.10;67.30;;;;;;4135128;28;20503;-81
2022/03/20 03:35:42;;;;;;;26.03;10.60;;;1.90;66.10;;;;;;4138318;28;20686;-81
2022/03/20 03:37:43;;;;;;;28.50;11.40;;;1.80;66.10;;;;;;4138127;28;20727;-81
2022/03/20 03:39:45;;;;;;;27.03;11.20;;;1.80;66.70;;;;;;4138758;28;20513;-81
2022/03/20 03:41:47;;;;;;;24.13;10.70;;;1.80;67.00;;;;;;4131917;28;20470;-81
2022/03/20 03:43:50;;;;;;;23.13;11.03;;;1.80;66.90;;;;;;4134715;28;20480;-81
2022/03/20 03:45:53;;;;;;;22.77;10.83;;;1.80;66.70;;;;;;4139343;28;20488;-81
2022/03/20 03:47:55;;;;;;;23.20;10.63;;;1.80;66.70;;;;;;4138857;28;20482;-81
2022/03/20 03:49:57;;;;;;;24.90;10.90;;;1.80;66.90;;;;;;4139011;28;20505;-81
2022/03/20 03:51:58;;;;;;;23.63;10.93;;;1.80;66.20;;;;;;4127686;28;20479;-81
2022/03/20 03:54:00;;;;;;;24.20;10.70;;;1.80;65.80;;;;;;4138865;28;20468;-81
2022/03/20 03:56:02;;;;;;;25.37;11.17;;;1.70;66.30;;;;;;4137803;28;20490;-81
2022/03/20 03:58:04;;;;;;;24.67;10.50;;;1.70;66.00;;;;;;4137144;28;20513;-81
2022/03/20 04:00:09;;;;;;;22.37;10.67;;;1.70;65.90;;;;;;4135427;28;20917;-81
2022/03/20 04:02:11;;;;;;;20.10;9.93;;;1.70;65.50;;;;;;4136750;28;20829;-81
2022/03/20 04:04:14;;;;;;;23.17;10.97;;;1.70;66.00;;;;;;4138045;28;20463;-81
2022/03/20 04:06:16;;;;;;;22.20;10.47;;;1.70;65.80;;;;;;4138282;28;20573;-81
2022/03/20 04:08:18;;;;;;;21.77;10.67;;;1.70;65.70;;;;;;4143920;28;20520;-81
2022/03/20 04:10:20;;;;;;;24.37;10.40;;;2.00;65.80;;;;;;4132569;28;20533;-81
2022/03/20 04:12:21;;;;;;;26.17;10.73;;;1.60;65.50;;;;;;4137229;28;20901;-81
2022/03/20 04:14:23;;;;;;;24.83;10.80;;;1.60;65.30;;;;;;4137175;28;20542;-81
2022/03/20 04:16:26;;;;;;;21.20;9.40;;;1.60;65.20;;;;;;4128593;28;20470;-81
2022/03/20 04:18:28;;;;;;;24.70;10.70;;;1.60;65.40;;;;;;4137197;28;20493;-81
2022/03/20 04:20:30;;;;;;;22.97;9.93;;;2.40;65.70;;;;;;4131113;28;20478;-81
2022/03/20 04:22:32;;;;;;;23.73;11.23;;;1.60;65.10;;;;;;4146638;28;20568;-81
2022/03/20 04:24:36;;;;;;;21.40;10.20;;;1.50;65.10;;;;;;4137938;28;20458;-81
2022/03/20 04:26:37;;;;;;;26.33;10.93;;;1.60;65.00;;;;;;4137310;28;20534;-81
2022/03/20 04:28:39;;;;;;;23.80;10.47;;;1.60;64.60;;;;;;4129784;28;20504;-81
2022/03/20 04:30:41;;;;;;;26.43;11.63;;;1.60;64.20;;;;;;4138726;28;20498;-81
2022/03/20 04:32:44;;;;;;;27.63;11.93;;;1.60;64.00;;;;;;4138923;28;20458;-81
2022/03/20 04:34:46;;;;;;;24.43;10.37;;;1.50;63.70;;;;;;4136924;28;20903;-81
2022/03/20 04:36:48;;;;;;;21.30;10.30;;;1.50;63.80;;;;;;4133658;28;20563;-81
2022/03/20 04:38:50;;;;;;;21.53;10.83;;;1.50;64.10;;;;;;4138063;28;20904;-81
2022/03/20 04:40:52;;;;;;;31.03;11.27;;;1.50;64.20;;;;;;4136183;28;20466;-81
2022/03/20 04:42:54;;;;;;;23.53;10.43;;;1.50;64.10;;;;;;4137652;28;20477;-81
2022/03/20 04:44:57;;;;;;;26.23;11.20;;;1.50;63.80;;;;;;4137372;28;20470;-81
2022/03/20 04:46:59;;;;;;;27.57;10.43;;;1.50;64.10;;;;;;4136384;28;20876;-81
2022/03/20 04:58:31;;;;;;;25.83;10.07;;;1.40;64.70;;;;;;4132541;28;20954;-81
2022/03/20 05:00:33;;;;;;;23.07;10.40;;;1.40;64.70;;;;;;4130937;28;20987;-81
2022/03/20 05:02:35;;;;;;;23.63;10.87;;;1.40;64.60;;;;;;4138950;28;20529;-81
2022/03/20 05:04:38;;;;;;;26.80;9.93;;;1.40;64.40;;;;;;4139929;28;20498;-81
2022/03/20 05:06:43;;;;;;;24.43;11.27;;;1.40;64.70;;;;;;4140909;28;21208;-82
2022/03/20 05:08:44;;;;;;;22.53;10.60;;;1.40;64.90;;;;;;4137181;28;20517;-82
2022/03/20 05:13:20;;;;;;;25.93;10.97;;;1.70;65.00;;;;;;4143897;28;20445;-82
2022/03/20 05:15:21;;;;;;;20.47;10.40;;;1.40;65.10;;;;;;4141360;28;20537;-82
2022/03/20 05:17:23;;;;;;;27.23;11.23;;;1.40;64.60;;;;;;4142718;28;20479;-82
2022/03/20 05:19:25;;;;;;;23.07;11.33;;;1.40;64.70;;;;;;4140187;28;20481;-82
2022/03/20 05:21:28;;;;;;;23.67;10.30;;;1.40;64.70;;;;;;4142163;28;20494;-81
2022/03/20 05:23:30;;;;;;;29.67;12.00;;;1.30;65.10;;;;;;4137230;28;20463;-82
2022/03/20 05:25:32;;;;;;;25.57;11.23;;;1.30;64.70;;;;;;4142191;28;20517;-82
2022/03/20 05:27:34;;;;;;;24.10;11.13;;;1.30;64.50;;;;;;4143081;28;20991;-82
2022/03/20 05:29:36;;;;;;;22.10;10.43;;;1.30;64.40;;;;;;4135894;28;20467;-82
2022/03/20 05:31:38;;;;;;;25.47;11.40;;;1.30;64.40;;;;;;4130774;28;20456;-83
2022/03/20 05:33:39;;;;;;;25.03;11.17;;;1.30;63.60;;;;;;4129776;28;20490;-80
2022/03/20 05:35:42;;;;;;;30.00;11.67;;;1.30;63.80;;;;;;4139709;28;20478;-81
2022/03/20 05:37:46;;;;;;;24.67;10.80;;;1.00;63.60;;;;;;4142587;28;20502;-82
2022/03/20 05:39:48;;;;;;;23.33;10.43;;;1.30;64.30;;;;;;4132353;28;20491;-82
2022/03/20 05:41:51;;;;;;;23.87;10.93;;;1.80;65.10;;;;;;4127678;28;20475;-82
2022/03/20 05:43:53;;;;;;;24.13;11.00;;;1.50;65.20;;;;;;4131134;28;20515;-82
2022/03/20 05:45:54;;;;;;;26.17;11.10;;;1.30;65.00;;;;;;4134633;28;20459;-82
2022/03/20 05:47:57;;;;;;;28.80;11.60;;;1.30;65.20;;;;;;4139182;28;20489;-82
2022/03/20 05:49:59;;;;;;;22.67;11.27;;;1.70;66.00;;;;;;4136300;28;20493;-82
2022/03/20 05:52:06;;;;;;;24.93;10.40;;;1.30;65.80;;;;;;4139377;28;20485;-82
2022/03/20 05:54:09;;;;;;;24.47;10.83;;;1.30;66.00;;;;;;4148139;28;20473;-82
2022/03/20 05:58:30;;;;;;;23.37;11.30;;;2.00;66.60;;;;;;4135039;28;20562;-82
2022/03/20 06:00:33;;;;;;;22.40;10.50;;;1.30;66.40;;;;;;4136057;28;20471;-82
2022/03/20 06:02:35;;;;;;;21.10;10.30;;;1.30;66.70;;;;;;4144988;28;20470;-82
2022/03/20 06:04:38;;;;;;;26.67;11.03;;;1.30;66.50;;;;;;4134614;28;20697;-81
2022/03/20 06:06:42;;;;;;;25.27;10.40;;;1.80;67.40;;;;;;4130704;28;20479;-81
2022/03/20 06:08:44;;;;;;;27.00;11.00;;;1.30;67.40;;;;;;4130161;28;20576;-82
2022/03/20 06:10:48;;;;;;;22.47;10.17;;;1.60;67.20;;;;;;4137411;28;21026;-82
2022/03/20 06:12:50;;;;;;;25.63;11.13;;;1.30;66.60;;;;;;4136076;28;21021;-82
2022/03/20 06:14:52;;;;;;;23.80;10.87;;;1.30;66.40;;;;;;4136613;28;20462;-82
2022/03/20 06:16:56;;;;;;;26.10;11.60;;;1.30;66.20;;;;;;4134211;28;21001;-81
2022/03/20 06:18:58;;;;;;;26.10;10.93;;;1.30;65.90;;;;;;4136493;28;21152;-82
2022/03/20 06:20:59;;;;;;;28.07;11.83;;;1.30;66.20;;;;;;4137074;28;20466;-82
2022/03/20 06:23:01;;;;;;;24.77;11.20;;;1.40;65.90;;;;;;4136087;28;20816;-82
2022/03/20 06:25:05;;;;;;;27.90;11.93;;;1.40;65.30;;;;;;4135147;28;20548;-82
2022/03/20 06:27:11;;;;;;;23.23;11.27;;;1.40;65.20;;;;;;4128033;28;20590;-82
2022/03/20 06:29:12;;;;;;;23.67;10.63;;;1.40;64.80;;;;;;4131583;28;20529;-82
2022/03/20 06:31:14;;;;;;;25.37;11.00;;;1.50;65.30;;;;;;4135171;28;20510;-82
2022/03/20 06:33:16;;;;;;;24.80;11.03;;;1.50;65.00;;;;;;4138927;28;20757;-82
2022/03/20 06:35:18;;;;;;;26.67;11.33;;;1.50;65.10;;;;;;4133841;28;20469;-81
2022/03/20 06:37:20;;;;;;;22.37;10.37;;;1.50;65.00;;;;;;4125939;28;20576;-82
2022/03/20 06:39:22;;;;;;;25.40;11.43;;;1.50;64.90;;;;;;4133407;28;20491;-82
2022/03/20 06:41:24;;;;;;;24.40;10.70;;;1.50;65.40;;;;;;4127068;28;20499;-82
2022/03/20 06:43:28;;;;;;;28.80;12.30;;;1.50;64.60;;;;;;4122607;28;20478;-82
2022/03/20 06:45:29;;;;;;;24.27;10.90;;;1.60;64.30;;;;;;4135682;28;21006;-82
2022/03/20 06:47:32;;;;;;;24.67;11.40;;;1.60;64.40;;;;;;4135106;28;20482;-82
2022/03/20 06:49:34;;;;;;;29.40;11.43;;;1.60;64.10;;;;;;4134808;28;20525;-82
2022/03/20 06:51:36;;;;;;;26.17;10.97;;;1.60;64.00;;;;;;4133453;28;20501;-82
2022/03/20 06:53:37;;;;;;;25.87;11.87;;;2.10;64.80;;;;;;4133426;28;20474;-82
2022/03/20 06:55:41;;;;;;;25.20;10.43;;;1.70;65.20;;;;;;4134262;28;20462;-82
2022/03/20 06:57:44;;;;;;;26.33;11.90;;;1.70;65.30;;;;;;4135142;28;20490;-82
2022/03/20 06:59:47;;;;;;;27.13;11.63;;;1.70;64.90;;;;;;4137070;28;20485;-81
2022/03/20 07:01:49;;;;;;;26.20;11.90;;;1.70;64.70;;;;;;4138425;28;20908;-82
2022/03/20 07:03:51;;;;;;;24.60;11.00;;;2.20;64.70;;;;;;4143039;28;20883;-81
2022/03/20 07:05:52;;;;;;;23.57;11.27;;;1.80;64.70;;;;;;4139629;28;20469;-82
2022/03/20 07:07:54;;;;;;;24.10;10.93;;;1.80;64.90;;;;;;4138754;28;20486;-82
2022/03/20 07:09:56;;;;;;;24.10;10.67;;;1.80;65.00;;;;;;4138405;28;20478;-82
2022/03/20 07:11:58;;;;;;;26.17;10.80;;;1.90;65.10;;;;;;4139280;28;20483;-82
2022/03/20 07:14:01;;;;;;;22.83;10.80;;;1.90;64.60;;;;;;4137603;28;20471;-82
2022/03/20 07:16:05;;;;;;;30.17;12.00;;;1.90;64.30;;;;;;4140206;28;20463;-82
2022/03/20 07:18:07;;;;;;;23.63;10.90;;;1.90;64.10;;;;;;4132848;28;20491;-82
2022/03/20 07:20:10;;;;;;;25.13;11.53;;;2.00;64.10;;;;;;4153334;28;20472;-82
2022/03/20 07:22:13;;;;;;;26.27;11.33;;;2.00;63.40;;;;;;4149606;28;20443;-82
2022/03/20 07:24:15;;;;;;;23.63;10.97;;;2.00;63.00;;;;;;4146662;28;20459;-82
2022/03/20 07:31:01;;;;;;;22.87;11.13;;;2.50;64.70;;;;;;4132031;28;20578;-82
2022/03/20 07:33:04;;;;;;;27.20;11.00;;;2.20;63.80;;;;;;4138144;28;20471;-82
2022/03/20 07:35:07;;;;;;;22.07;11.03;;;2.20;63.70;;;;;;4134296;28;20486;-82
2022/03/20 07:37:09;;;;;;;19.23;9.80;;;2.20;63.10;;;;;;4139160;28;20455;-81
2022/03/20 07:39:11;;;;;;;23.70;10.93;;;2.30;62.70;;;;;;4136191;28;20482;-82
2022/03/20 07:41:13;;;;;;;21.67;10.20;;;2.30;62.80;;;;;;4133528;28;20468;-82
2022/03/20 07:43:15;;;;;;;23.67;11.63;;;2.40;63.30;;;;;;4137601;28;20487;-82
2022/03/20 07:47:27;;;;;;;26.27;11.47;;;2.40;63.00;;;;;;4165592;28;20837;-86
2022/03/20 07:49:31;;;;;;;21.23;9.97;;;2.50;62.10;;;;;;4153121;28;20479;-86
2022/03/20 07:51:33;;;;;;;25.80;11.30;;;2.50;61.60;;;;;;4163965;28;20489;-86
2022/03/20 07:53:35;;;;;;;24.67;11.40;;;2.60;61.40;;;;;;4161822;28;20829;-87
2022/03/20 07:55:37;;;;;;;19.73;9.77;;;2.70;61.10;;;;;;4167602;28;20534;-86
2022/03/20 07:57:41;;;;;;;21.77;10.23;;;2.70;60.40;;;;;;4169716;28;20548;-87
2022/03/20 07:59:44;;;;;;;22.60;10.70;;;2.80;60.30;;;;;;4174861;28;20465;-86
2022/03/20 08:01:46;;;;;;;22.97;10.43;;;2.80;60.30;;;;;;4169107;28;20481;-86
2022/03/20 08:03:48;;;;;;;24.67;11.17;;;2.90;60.00;;;;;;4166008;28;20467;-87
2022/03/20 08:05:51;;;;;;;22.07;11.17;;;2.90;59.80;;;;;;4161825;28;20497;-88
2022/03/20 08:07:53;;;;;;;23.87;9.77;;;3.00;59.70;;;;;;4165890;28;20973;-86
2022/03/20 08:09:55;;;;;;;21.83;9.93;;;3.00;59.60;;;;;;4168843;28;20465;-85
2022/03/20 08:12:01;;;;;;;22.23;11.30;;;3.10;59.60;;;;;;4166973;28;20496;-86
2022/03/20 08:14:07;;;;;;;23.70;10.07;;;3.10;59.20;;;;;;4161679;28;20469;-86
2022/03/20 08:16:15;;;;;;;21.20;10.03;;;3.20;58.80;;;;;;4159975;28;20474;-86
2022/03/20 08:18:18;;;;;;;24.70;10.63;;;3.40;58.70;;;;;;4159797;28;20864;-86
2022/03/20 08:20:20;;;;;;;19.30;9.47;;;3.40;58.00;;;;;;4162991;28;20474;-87
2022/03/20 08:22:25;;;;;;;21.57;10.57;;;3.50;57.80;;;;;;4163364;28;20458;-86
2022/03/20 08:24:27;;;;;;;19.10;9.47;;;3.50;57.40;;;;;;4160558;28;20466;-86
2022/03/20 08:26:32;;;;;;;20.07;10.20;;;3.60;57.00;;;;;;4163835;28;20485;-86
2022/03/20 08:28:34;;;;;;;19.03;9.77;;;3.70;56.50;;;;;;4165935;28;20470;-84
2022/03/20 08:30:37;;;;;;;18.83;9.37;;;3.70;56.50;;;;;;4164396;28;20465;-84
2022/03/20 08:32:39;;;;;;;21.27;9.60;;;3.80;56.60;;;;;;4167592;28;20466;-84
2022/03/20 08:34:41;;;;;;;21.53;9.37;;;3.80;56.40;;;;;;4169570;28;20457;-85
2022/03/20 08:36:44;;;;;;;22.07;9.27;;;3.90;56.30;;;;;;4163281;28;20552;-85
2022/03/20 08:38:47;;;;;;;18.07;9.17;;;3.90;55.90;;;;;;4165494;28;20477;-85
2022/03/20 08:40:49;;;;;;;20.67;8.70;;;4.00;55.30;;;;;;4168606;28;20481;-84
2022/03/20 08:42:53;;;;;;;18.63;9.97;;;4.10;55.00;;;;;;4166626;28;20502;-86
2022/03/20 08:44:55;;;;;;;17.83;9.10;;;4.30;54.90;;;;;;4169975;28;20459;-86
2022/03/20 08:46:57;;;;;;;21.60;9.70;;;4.30;54.20;;;;;;4177911;28;20490;-88
2022/03/20 08:49:03;;;;;;;20.77;9.60;;;4.30;54.30;;;;;;4173965;28;20468;-85
2022/03/20 08:51:05;;;;;;;20.50;10.03;;;4.40;54.00;;;;;;4174784;28;20485;-84
2022/03/20 08:53:07;;;;;;;19.67;9.80;;;4.40;53.70;;;;;;4173479;28;20889;-87
2022/03/20 08:55:11;;;;;;;19.00;9.20;;;4.50;53.40;;;;;;4169241;28;20857;-86
2022/03/20 08:57:15;;;;;;;18.27;9.93;;;4.60;52.80;;;;;;4167653;28;20486;-87
2022/03/20 08:59:16;;;;;;;18.97;9.60;;;4.70;52.50;;;;;;4167356;28;20462;-88
2022/03/20 09:01:18;;;;;;;17.27;9.47;;;4.80;52.50;;;;;;4167667;28;20461;-85
2022/03/20 09:03:20;;;;;;;18.83;9.57;;;5.00;52.10;;;;;;4160493;28;20453;-86
2022/03/20 09:05:22;;;;;;;19.30;10.03;;;4.90;52.20;;;;;;4159468;28;20474;-86
2022/03/20 09:07:24;;;;;;;19.00;9.37;;;5.00;52.40;;;;;;4156864;28;20455;-86
2022/03/20 09:09:25;;;;;;;18.10;9.63;;;5.10;52.20;;;;;;4164006;28;20468;-85
2022/03/20 09:11:29;;;;;;;19.27;9.93;;;5.20;52.20;;;;;;4162108;28;20507;-86
2022/03/20 09:13:31;;;;;;;21.13;9.90;;;5.20;52.00;;;;;;4165496;28;20477;-86
2022/03/20 09:15:33;;;;;;;20.47;10.47;;;5.30;51.80;;;;;;4159213;28;20471;-86
2022/03/20 09:19:55;;;;;;;18.63;9.70;;;5.40;51.60;;;;;;4158526;28;20490;-86
2022/03/20 09:21:57;;;;;;;18.57;9.53;;;5.50;51.20;;;;;;4161627;28;20958;-86
2022/03/20 09:24:00;;;;;;;19.20;9.27;;;5.60;50.40;;;;;;4163359;28;20448;-87
2022/03/20 09:26:01;;;;;;;17.07;8.87;;;5.70;49.90;;;;;;4163783;28;20551;-87
2022/03/20 09:28:06;;;;;;;17.73;8.93;;;5.80;49.60;;;;;;4158775;28;20468;-86
2022/03/20 09:30:10;;;;;;;18.87;8.80;;;5.90;49.40;;;;;;4161572;28;20838;-87
2022/03/20 09:32:12;;;;;;;16.47;9.00;;;6.00;49.00;;;;;;4160107;28;20525;-86
2022/03/20 09:34:15;;;;;;;17.07;8.80;;;6.10;48.60;;;;;;4160325;28;20507;-86
2022/03/20 09:36:17;;;;;;;14.83;8.10;;;6.20;48.50;;;;;;4158374;28;20485;-86
2022/03/20 09:38:20;;;;;;;15.50;8.90;;;6.30;48.50;;;;;;4164004;28;20459;-87
2022/03/20 09:40:24;;;;;;;13.73;8.40;;;6.30;48.50;;;;;;4163071;28;20888;-87
2022/03/20 09:42:26;;;;;;;16.50;9.13;;;6.40;48.60;;;;;;4158693;28;20553;-86
2022/03/20 09:44:31;;;;;;;18.13;9.07;;;6.50;48.10;;;;;;4173829;28;20457;-86
2022/03/20 09:46:34;;;;;;;18.53;9.20;;;6.50;47.70;;;;;;4161801;28;20498;-86
2022/03/20 09:48:36;;;;;;;15.30;9.03;;;6.60;47.50;;;;;;4172476;28;20476;-86
2022/03/20 09:50:39;;;;;;;15.73;8.47;;;6.70;46.80;;;;;;4166227;28;20470;-86
2022/03/20 09:52:41;;;;;;;16.97;8.57;;;6.80;47.00;;;;;;4158593;28;20497;-87
2022/03/20 09:54:43;;;;;;;16.87;8.93;;;6.80;46.60;;;;;;4162154;28;20798;-86
2022/03/20 09:56:50;;;;;;;13.97;8.00;;;6.90;46.60;;;;;;4160124;28;20854;-86
2022/03/20 09:58:51;;;;;;;16.10;8.73;;;7.00;46.50;;;;;;4161814;28;20469;-86
2022/03/20 10:00:56;;;;;;;15.83;8.20;;;7.10;46.70;;;;;;4162378;28;20735;-86
2022/03/20 10:02:57;;;;;;;16.07;8.17;;;7.10;46.40;;;;;;4164527;28;20469;-86
2022/03/20 10:05:01;;;;;;;15.20;8.47;;;7.20;45.70;;;;;;4163128;28;20520;-87
2022/03/20 10:07:08;;;;;;;15.80;7.90;;;7.40;45.60;;;;;;4161534;28;20824;-87
2022/03/20 10:09:11;;;;;;;15.43;8.10;;;7.40;45.40;;;;;;4161826;28;20497;-86
2022/03/20 10:11:15;;;;;;;17.10;8.00;;;7.50;45.30;;;;;;4160981;28;20458;-87
2022/03/20 10:13:17;;;;;;;15.80;8.20;;;7.60;44.80;;;;;;4166469;28;20470;-87
2022/03/20 10:15:31;;;;;;;16.07;8.00;;;7.60;44.90;;;;;;4159266;28;20461;-87
2022/03/20 10:17:35;;;;;;;15.50;8.50;;;7.70;44.50;;;;;;4148828;28;20461;-87
2022/03/20 10:19:37;;;;;;;14.57;8.00;;;7.80;44.60;;;;;;4157346;28;20953;-87
2022/03/20 10:21:45;;;;;;;13.83;7.67;;;7.80;44.60;;;;;;4153686;28;20226;-87
2022/03/20 10:23:47;;;;;;;13.87;8.10;;;8.00;44.90;;;;;;4156265;28;20211;-87
2022/03/20 10:25:52;;;;;;;15.20;7.47;;;8.00;45.30;;;;;;4156307;28;20242;-87
2022/03/20 10:27:58;;;;;;;14.73;7.90;;;8.00;45.80;;;;;;4154886;28;20466;-86
2022/03/20 10:30:00;;;;;;;16.37;8.07;;;8.30;45.40;;;;;;4157692;28;20211;-87
2022/03/20 10:32:03;;;;;;;14.87;7.80;;;8.20;44.80;;;;;;4166346;28;20294;-86
2022/03/20 10:34:08;;;;;;;15.20;8.13;;;8.30;44.60;;;;;;4168239;28;20575;-87
2022/03/20 10:36:11;;;;;;;13.13;7.07;;;8.60;44.40;;;;;;4156444;28;20224;-88
2022/03/20 10:38:14;;;;;;;12.63;7.40;;;8.50;44.40;;;;;;4161187;28;20229;-87
2022/03/20 10:40:18;;;;;;;14.90;7.60;;;8.60;44.50;;;;;;4171720;28;20223;-87
2022/03/20 10:42:20;;;;;;;13.93;7.13;;;8.70;43.50;;;;;;4157195;28;20243;-88
2022/03/20 10:44:26;;;;;;;12.57;6.90;;;8.80;41.80;;;;;;4155481;28;20219;-87
2022/03/20 10:46:29;;;;;;;14.50;7.53;;;8.90;40.90;;;;;;4151182;28;20240;-85
2022/03/20 10:48:35;;;;;;;11.73;6.30;;;9.00;39.40;;;;;;4141087;28;20220;-86
2022/03/20 10:50:47;;;;;;;12.63;7.20;;;9.20;38.60;;;;;;4147109;28;20219;-86
2022/03/20 10:53:09;;;;;;;13.60;7.07;;;9.30;38.40;;;;;;4150806;28;20232;-86
2022/03/20 10:55:13;;;;;;;17.03;6.97;;;9.40;38.20;;;;;;4147995;28;20209;-85
2022/03/20 10:57:15;;;;;;;13.20;7.33;;;9.50;38.20;;;;;;4157423;28;20239;-87
2022/03/20 10:59:17;;;;;;;12.23;7.10;;;9.60;37.70;;;;;;4166310;28;20212;-87
2022/03/20 11:01:19;;;;;;;12.87;6.80;;;9.80;37.10;;;;;;4166777;28;20370;-85
2022/03/20 11:03:23;;;;;;;11.47;6.53;;;9.90;36.80;;;;;;4166115;28;20213;-85